sensor_id;sensor_type;location;lat;lon;timestamp;P1;durP1;ratioP1;P2;durP2;ratioP2
72132;SDS011;60008;50.826;6.896;2022-11-06T00:01:53;7.05;;;2.70;;
72132;SDS011;60008;50.826;6.896;2022-11-06T00:04:38;5.73;;;2.50;;
72132;SDS011;60008;50.826;6.896;2022-11-06T00:07:23;6.28;;;2.40;;
72132;SDS011;60008;50.826;6.896;2022-11-06T00:10:08;6.07;;;2.50;;
72132;SDS011;60008;50.826;6.896;2022-11-06T00:12:53;7.68;;;2.33;;
72132;SDS011;60008;50.826;6.896;2022-11-06T00:15:38;7.82;;;2.67;;
72132;SDS011;60008;50.826;6.896;2022-11-06T00:18:24;5.93;;;2.93;;
72132;SDS011;60008;50.826;6.896;2022-11-06T00:21:14;6.35;;;2.85;;
72132;SDS011;60008;50.826;6.896;2022-11-06T00:24:02;6.47;;;2.60;;
72132;SDS011;60008;50.826;6.896;2022-11-06T00:26:49;10.15;;;3.85;;
72132;SDS011;60008;50.826;6.896;2022-11-06T00:29:38;10.77;;;4.20;;
72132;SDS011;60008;50.826;6.896;2022-11-06T00:32:23;10.10;;;4.23;;
72132;SDS011;60008;50.826;6.896;2022-11-06T00:35:08;9.00;;;4.00;;
72132;SDS011;60008;50.826;6.896;2022-11-06T00:37:53;11.30;;;4.20;;
72132;SDS011;60008;50.826;6.896;2022-11-06T00:40:39;11.55;;;3.70;;
72132;SDS011;60008;50.826;6.896;2022-11-06T00:43:24;9.55;;;4.20;;
72132;SDS011;60008;50.826;6.896;2022-11-06T00:46:10;8.90;;;4.00;;
72132;SDS011;60008;50.826;6.896;2022-11-06T00:48:56;7.47;;;3.60;;
72132;SDS011;60008;50.826;6.896;2022-11-06T00:51:42;9.77;;;3.65;;
72132;SDS011;60008;50.826;6.896;2022-11-06T00:54:27;8.50;;;3.80;;
72132;SDS011;60008;50.826;6.896;2022-11-06T00:57:12;9.18;;;3.75;;
72132;SDS011;60008;50.826;6.896;2022-11-06T00:59:57;9.37;;;3.80;;
72132;SDS011;60008;50.826;6.896;2022-11-06T01:02:45;8.88;;;3.40;;
72132;SDS011;60008;50.826;6.896;2022-11-06T01:05:31;8.68;;;3.30;;
72132;SDS011;60008;50.826;6.896;2022-11-06T01:08:16;8.40;;;3.08;;
72132;SDS011;60008;50.826;6.896;2022-11-06T01:11:05;10.40;;;3.70;;
72132;SDS011;60008;50.826;6.896;2022-11-06T01:13:56;5.43;;;3.23;;
72132;SDS011;60008;50.826;6.896;2022-11-06T01:16:42;7.82;;;3.33;;
72132;SDS011;60008;50.826;6.896;2022-11-06T01:19:28;6.25;;;3.38;;
72132;SDS011;60008;50.826;6.896;2022-11-06T01:22:13;7.75;;;3.00;;
72132;SDS011;60008;50.826;6.896;2022-11-06T01:24:58;9.63;;;3.60;;
72132;SDS011;60008;50.826;6.896;2022-11-06T01:27:43;9.03;;;2.97;;
72132;SDS011;60008;50.826;6.896;2022-11-06T01:30:28;7.30;;;3.17;;
72132;SDS011;60008;50.826;6.896;2022-11-06T01:33:14;9.63;;;3.00;;
72132;SDS011;60008;50.826;6.896;2022-11-06T01:35:59;7.85;;;2.90;;
72132;SDS011;60008;50.826;6.896;2022-11-06T01:38:46;4.82;;;2.17;;
72132;SDS011;60008;50.826;6.896;2022-11-06T01:41:34;4.93;;;2.50;;
72132;SDS011;60008;50.826;6.896;2022-11-06T01:47:26;6.05;;;1.70;;
72132;SDS011;60008;50.826;6.896;2022-11-06T01:50:12;2.60;;;1.25;;
72132;SDS011;60008;50.826;6.896;2022-11-06T01:52:59;4.18;;;1.25;;
72132;SDS011;60008;50.826;6.896;2022-11-06T01:55:46;8.13;;;1.83;;
72132;SDS011;60008;50.826;6.896;2022-11-06T01:58:36;4.80;;;1.40;;
72132;SDS011;60008;50.826;6.896;2022-11-06T02:01:22;6.43;;;1.60;;
72132;SDS011;60008;50.826;6.896;2022-11-06T02:04:08;4.40;;;1.65;;
72132;SDS011;60008;50.826;6.896;2022-11-06T02:06:54;4.95;;;1.60;;
72132;SDS011;60008;50.826;6.896;2022-11-06T02:09:41;5.00;;;1.70;;
72132;SDS011;60008;50.826;6.896;2022-11-06T02:12:37;4.35;;;1.50;;
72132;SDS011;60008;50.826;6.896;2022-11-06T02:15:34;7.80;;;1.80;;
72132;SDS011;60008;50.826;6.896;2022-11-06T02:18:33;4.63;;;1.70;;
72132;SDS011;60008;50.826;6.896;2022-11-06T02:21:51;6.88;;;1.77;;
72132;SDS011;60008;50.826;6.896;2022-11-06T02:28:01;5.45;;;1.48;;
72132;SDS011;60008;50.826;6.896;2022-11-06T02:30:52;4.05;;;1.40;;
72132;SDS011;60008;50.826;6.896;2022-11-06T02:33:43;5.65;;;1.40;;
72132;SDS011;60008;50.826;6.896;2022-11-06T02:36:37;4.35;;;1.40;;
72132;SDS011;60008;50.826;6.896;2022-11-06T02:39:31;4.07;;;1.40;;
72132;SDS011;60008;50.826;6.896;2022-11-06T02:42:19;6.22;;;1.45;;
72132;SDS011;60008;50.826;6.896;2022-11-06T02:45:07;4.90;;;1.20;;
72132;SDS011;60008;50.826;6.896;2022-11-06T02:47:54;4.05;;;1.40;;
72132;SDS011;60008;50.826;6.896;2022-11-06T02:50:43;4.50;;;1.60;;
72132;SDS011;60008;50.826;6.896;2022-11-06T02:53:31;5.67;;;1.33;;
72132;SDS011;60008;50.826;6.896;2022-11-06T02:56:18;5.18;;;1.25;;
72132;SDS011;60008;50.826;6.896;2022-11-06T02:59:11;3.63;;;1.27;;
72132;SDS011;60008;50.826;6.896;2022-11-06T03:02:05;3.75;;;1.25;;
72132;SDS011;60008;50.826;6.896;2022-11-06T03:04:57;5.35;;;1.05;;
72132;SDS011;60008;50.826;6.896;2022-11-06T03:07:50;3.20;;;1.00;;
72132;SDS011;60008;50.826;6.896;2022-11-06T03:10:51;4.88;;;1.30;;
72132;SDS011;60008;50.826;6.896;2022-11-06T03:13:50;8.23;;;1.30;;
72132;SDS011;60008;50.826;6.896;2022-11-06T03:16:44;4.18;;;1.42;;
72132;SDS011;60008;50.826;6.896;2022-11-06T03:19:46;5.85;;;1.35;;
72132;SDS011;60008;50.826;6.896;2022-11-06T03:22:39;8.53;;;1.10;;
72132;SDS011;60008;50.826;6.896;2022-11-06T03:25:40;3.20;;;1.08;;
72132;SDS011;60008;50.826;6.896;2022-11-06T03:28:38;2.65;;;1.25;;
72132;SDS011;60008;50.826;6.896;2022-11-06T03:31:34;3.83;;;1.40;;
72132;SDS011;60008;50.826;6.896;2022-11-06T03:34:26;3.78;;;1.30;;
72132;SDS011;60008;50.826;6.896;2022-11-06T03:37:16;9.10;;;1.77;;
72132;SDS011;60008;50.826;6.896;2022-11-06T03:40:08;3.45;;;1.35;;
72132;SDS011;60008;50.826;6.896;2022-11-06T03:42:58;5.55;;;1.75;;
72132;SDS011;60008;50.826;6.896;2022-11-06T03:45:46;11.15;;;1.83;;
72132;SDS011;60008;50.826;6.896;2022-11-06T03:48:42;4.97;;;1.70;;
72132;SDS011;60008;50.826;6.896;2022-11-06T03:51:39;6.63;;;1.33;;
72132;SDS011;60008;50.826;6.896;2022-11-06T03:55:12;9.02;;;1.60;;
72132;SDS011;60008;50.826;6.896;2022-11-06T03:58:01;4.10;;;1.50;;
72132;SDS011;60008;50.826;6.896;2022-11-06T04:00:50;5.05;;;1.60;;
72132;SDS011;60008;50.826;6.896;2022-11-06T04:03:44;8.57;;;1.40;;
72132;SDS011;60008;50.826;6.896;2022-11-06T04:06:36;3.63;;;1.50;;
72132;SDS011;60008;50.826;6.896;2022-11-06T04:09:27;6.75;;;1.70;;
72132;SDS011;60008;50.826;6.896;2022-11-06T04:12:34;4.38;;;1.92;;
72132;SDS011;60008;50.826;6.896;2022-11-06T04:15:41;4.68;;;1.55;;
72132;SDS011;60008;50.826;6.896;2022-11-06T04:18:32;5.28;;;1.58;;
72132;SDS011;60008;50.826;6.896;2022-11-06T04:21:26;4.70;;;1.57;;
72132;SDS011;60008;50.826;6.896;2022-11-06T04:24:32;3.50;;;1.60;;
72132;SDS011;60008;50.826;6.896;2022-11-06T04:30:26;4.88;;;1.63;;
72132;SDS011;60008;50.826;6.896;2022-11-06T04:36:23;3.47;;;1.30;;
72132;SDS011;60008;50.826;6.896;2022-11-06T04:39:27;7.03;;;2.05;;
72132;SDS011;60008;50.826;6.896;2022-11-06T04:42:23;5.75;;;1.55;;
72132;SDS011;60008;50.826;6.896;2022-11-06T04:45:25;4.65;;;1.67;;
72132;SDS011;60008;50.826;6.896;2022-11-06T04:48:14;3.65;;;1.52;;
72132;SDS011;60008;50.826;6.896;2022-11-06T04:51:02;3.53;;;1.30;;
72132;SDS011;60008;50.826;6.896;2022-11-06T04:53:51;5.10;;;1.63;;
72132;SDS011;60008;50.826;6.896;2022-11-06T04:56:37;4.70;;;1.17;;
72132;SDS011;60008;50.826;6.896;2022-11-06T04:59:30;5.20;;;1.73;;
72132;SDS011;60008;50.826;6.896;2022-11-06T05:02:19;4.88;;;1.60;;
72132;SDS011;60008;50.826;6.896;2022-11-06T05:05:04;5.57;;;1.30;;
72132;SDS011;60008;50.826;6.896;2022-11-06T05:07:50;7.85;;;1.75;;
72132;SDS011;60008;50.826;6.896;2022-11-06T05:10:35;3.88;;;1.52;;
72132;SDS011;60008;50.826;6.896;2022-11-06T05:13:20;4.55;;;1.60;;
72132;SDS011;60008;50.826;6.896;2022-11-06T05:16:05;4.70;;;1.73;;
72132;SDS011;60008;50.826;6.896;2022-11-06T05:18:50;7.23;;;1.40;;
72132;SDS011;60008;50.826;6.896;2022-11-06T05:21:35;5.85;;;1.40;;
72132;SDS011;60008;50.826;6.896;2022-11-06T05:24:39;8.15;;;1.60;;
72132;SDS011;60008;50.826;6.896;2022-11-06T05:27:24;4.85;;;1.40;;
72132;SDS011;60008;50.826;6.896;2022-11-06T05:30:09;3.55;;;1.33;;
72132;SDS011;60008;50.826;6.896;2022-11-06T05:32:54;3.63;;;1.27;;
72132;SDS011;60008;50.826;6.896;2022-11-06T05:35:39;3.78;;;1.17;;
72132;SDS011;60008;50.826;6.896;2022-11-06T05:38:24;8.95;;;1.75;;
72132;SDS011;60008;50.826;6.896;2022-11-06T05:41:09;6.93;;;1.38;;
72132;SDS011;60008;50.826;6.896;2022-11-06T05:43:54;4.85;;;1.25;;
72132;SDS011;60008;50.826;6.896;2022-11-06T05:46:39;5.07;;;1.30;;
72132;SDS011;60008;50.826;6.896;2022-11-06T05:49:33;3.78;;;1.40;;
72132;SDS011;60008;50.826;6.896;2022-11-06T05:52:18;6.20;;;1.33;;
72132;SDS011;60008;50.826;6.896;2022-11-06T05:55:04;7.47;;;1.40;;
72132;SDS011;60008;50.826;6.896;2022-11-06T05:57:56;3.65;;;1.30;;
72132;SDS011;60008;50.826;6.896;2022-11-06T06:00:42;5.00;;;1.33;;
72132;SDS011;60008;50.826;6.896;2022-11-06T06:03:27;3.25;;;1.33;;
72132;SDS011;60008;50.826;6.896;2022-11-06T06:06:13;5.55;;;1.55;;
72132;SDS011;60008;50.826;6.896;2022-11-06T06:08:58;6.13;;;1.52;;
72132;SDS011;60008;50.826;6.896;2022-11-06T06:11:43;4.68;;;1.55;;
72132;SDS011;60008;50.826;6.896;2022-11-06T06:14:28;8.07;;;1.50;;
72132;SDS011;60008;50.826;6.896;2022-11-06T06:17:13;5.55;;;1.30;;
72132;SDS011;60008;50.826;6.896;2022-11-06T06:19:58;4.38;;;1.30;;
72132;SDS011;60008;50.826;6.896;2022-11-06T06:22:51;4.43;;;1.48;;
72132;SDS011;60008;50.826;6.896;2022-11-06T06:25:36;7.43;;;1.90;;
72132;SDS011;60008;50.826;6.896;2022-11-06T06:28:22;5.13;;;1.63;;
72132;SDS011;60008;50.826;6.896;2022-11-06T06:31:07;4.18;;;1.33;;
72132;SDS011;60008;50.826;6.896;2022-11-06T06:33:52;5.97;;;1.50;;
72132;SDS011;60008;50.826;6.896;2022-11-06T06:36:38;5.70;;;1.42;;
72132;SDS011;60008;50.826;6.896;2022-11-06T06:39:23;10.82;;;1.73;;
72132;SDS011;60008;50.826;6.896;2022-11-06T06:42:08;5.33;;;1.73;;
72132;SDS011;60008;50.826;6.896;2022-11-06T06:44:53;4.63;;;1.67;;
72132;SDS011;60008;50.826;6.896;2022-11-06T06:47:38;4.47;;;1.50;;
72132;SDS011;60008;50.826;6.896;2022-11-06T06:50:23;5.60;;;1.55;;
72132;SDS011;60008;50.826;6.896;2022-11-06T06:53:08;5.65;;;1.90;;
72132;SDS011;60008;50.826;6.896;2022-11-06T06:55:53;5.10;;;1.60;;
72132;SDS011;60008;50.826;6.896;2022-11-06T06:58:38;7.60;;;2.30;;
72132;SDS011;60008;50.826;6.896;2022-11-06T07:01:24;7.88;;;2.67;;
72132;SDS011;60008;50.826;6.896;2022-11-06T07:04:09;10.45;;;2.92;;
72132;SDS011;60008;50.826;6.896;2022-11-06T07:06:54;8.85;;;3.22;;
72132;SDS011;60008;50.826;6.896;2022-11-06T07:09:39;11.40;;;4.00;;
72132;SDS011;60008;50.826;6.896;2022-11-06T07:12:24;13.07;;;4.88;;
72132;SDS011;60008;50.826;6.896;2022-11-06T07:15:10;11.00;;;4.63;;
72132;SDS011;60008;50.826;6.896;2022-11-06T07:18:00;13.05;;;5.63;;
72132;SDS011;60008;50.826;6.896;2022-11-06T07:20:46;10.70;;;4.50;;
72132;SDS011;60008;50.826;6.896;2022-11-06T07:23:32;7.37;;;3.10;;
72132;SDS011;60008;50.826;6.896;2022-11-06T07:26:18;7.25;;;2.42;;
72132;SDS011;60008;50.826;6.896;2022-11-06T07:29:03;17.33;;;4.50;;
72132;SDS011;60008;50.826;6.896;2022-11-06T07:31:48;11.07;;;3.47;;
72132;SDS011;60008;50.826;6.896;2022-11-06T07:34:33;5.53;;;2.67;;
72132;SDS011;60008;50.826;6.896;2022-11-06T07:37:18;4.17;;;1.50;;
72132;SDS011;60008;50.826;6.896;2022-11-06T07:40:04;7.65;;;2.10;;
72132;SDS011;60008;50.826;6.896;2022-11-06T07:42:49;7.03;;;2.58;;
72132;SDS011;60008;50.826;6.896;2022-11-06T07:45:34;5.70;;;2.42;;
72132;SDS011;60008;50.826;6.896;2022-11-06T07:48:20;4.80;;;1.75;;
72132;SDS011;60008;50.826;6.896;2022-11-06T07:51:06;5.10;;;1.30;;
72132;SDS011;60008;50.826;6.896;2022-11-06T07:53:52;6.72;;;1.80;;
72132;SDS011;60008;50.826;6.896;2022-11-06T07:56:37;7.63;;;2.17;;
72132;SDS011;60008;50.826;6.896;2022-11-06T07:59:22;3.13;;;1.55;;
72132;SDS011;60008;50.826;6.896;2022-11-06T08:02:11;7.55;;;2.17;;
72132;SDS011;60008;50.826;6.896;2022-11-06T08:04:57;4.00;;;1.80;;
72132;SDS011;60008;50.826;6.896;2022-11-06T08:07:42;8.38;;;1.60;;
72132;SDS011;60008;50.826;6.896;2022-11-06T08:10:27;6.50;;;1.90;;
72132;SDS011;60008;50.826;6.896;2022-11-06T08:13:13;11.75;;;4.90;;
72132;SDS011;60008;50.826;6.896;2022-11-06T08:16:03;19.35;;;7.35;;
72132;SDS011;60008;50.826;6.896;2022-11-06T08:18:52;9.10;;;2.57;;
72132;SDS011;60008;50.826;6.896;2022-11-06T08:21:37;9.43;;;2.10;;
72132;SDS011;60008;50.826;6.896;2022-11-06T08:24:23;9.98;;;2.60;;
72132;SDS011;60008;50.826;6.896;2022-11-06T08:27:08;7.55;;;2.28;;
72132;SDS011;60008;50.826;6.896;2022-11-06T08:29:53;5.15;;;1.65;;
72132;SDS011;60008;50.826;6.896;2022-11-06T08:32:38;7.17;;;1.77;;
72132;SDS011;60008;50.826;6.896;2022-11-06T08:35:23;5.88;;;1.90;;
72132;SDS011;60008;50.826;6.896;2022-11-06T08:38:08;7.00;;;1.90;;
72132;SDS011;60008;50.826;6.896;2022-11-06T08:40:53;5.70;;;1.70;;
72132;SDS011;60008;50.826;6.896;2022-11-06T08:43:38;6.70;;;1.60;;
72132;SDS011;60008;50.826;6.896;2022-11-06T08:46:23;5.30;;;1.40;;
72132;SDS011;60008;50.826;6.896;2022-11-06T08:49:08;5.22;;;2.00;;
72132;SDS011;60008;50.826;6.896;2022-11-06T08:51:54;8.23;;;1.65;;
72132;SDS011;60008;50.826;6.896;2022-11-06T08:54:39;5.78;;;1.55;;
72132;SDS011;60008;50.826;6.896;2022-11-06T08:57:25;9.52;;;1.80;;
72132;SDS011;60008;50.826;6.896;2022-11-06T09:00:10;3.73;;;1.13;;
72132;SDS011;60008;50.826;6.896;2022-11-06T09:03:00;4.95;;;1.92;;
72132;SDS011;60008;50.826;6.896;2022-11-06T09:05:46;4.32;;;1.42;;
72132;SDS011;60008;50.826;6.896;2022-11-06T09:08:31;4.13;;;1.00;;
72132;SDS011;60008;50.826;6.896;2022-11-06T09:11:17;6.47;;;1.52;;
72132;SDS011;60008;50.826;6.896;2022-11-06T09:14:01;6.60;;;1.13;;
72132;SDS011;60008;50.826;6.896;2022-11-06T09:16:46;5.53;;;1.83;;
72132;SDS011;60008;50.826;6.896;2022-11-06T09:19:31;5.00;;;2.10;;
72132;SDS011;60008;50.826;6.896;2022-11-06T09:22:17;8.30;;;1.80;;
72132;SDS011;60008;50.826;6.896;2022-11-06T09:25:03;7.95;;;1.58;;
72132;SDS011;60008;50.826;6.896;2022-11-06T09:27:49;6.47;;;1.67;;
72132;SDS011;60008;50.826;6.896;2022-11-06T09:30:42;5.13;;;1.20;;
72132;SDS011;60008;50.826;6.896;2022-11-06T09:33:27;3.95;;;1.35;;
72132;SDS011;60008;50.826;6.896;2022-11-06T09:36:13;7.35;;;1.80;;
72132;SDS011;60008;50.826;6.896;2022-11-06T09:38:57;5.13;;;1.35;;
72132;SDS011;60008;50.826;6.896;2022-11-06T09:48:03;2.88;;;0.70;;
72132;SDS011;60008;50.826;6.896;2022-11-06T09:57:14;2.13;;;0.70;;
72132;SDS011;60008;50.826;6.896;2022-11-06T10:00:05;2.85;;;0.88;;
72132;SDS011;60008;50.826;6.896;2022-11-06T10:02:52;2.67;;;1.00;;
72132;SDS011;60008;50.826;6.896;2022-11-06T10:05:39;1.92;;;0.70;;
72132;SDS011;60008;50.826;6.896;2022-11-06T10:08:26;6.55;;;1.00;;
72132;SDS011;60008;50.826;6.896;2022-11-06T10:14:05;2.97;;;0.95;;
72132;SDS011;60008;50.826;6.896;2022-11-06T10:17:09;4.00;;;1.00;;
72132;SDS011;60008;50.826;6.896;2022-11-06T10:20:10;1.67;;;0.50;;
72132;SDS011;60008;50.826;6.896;2022-11-06T10:23:33;7.40;;;1.60;;
72132;SDS011;60008;50.826;6.896;2022-11-06T10:26:40;8.67;;;1.13;;
72132;SDS011;60008;50.826;6.896;2022-11-06T10:33:12;4.57;;;1.38;;
72132;SDS011;60008;50.826;6.896;2022-11-06T10:36:01;4.65;;;1.77;;
72132;SDS011;60008;50.826;6.896;2022-11-06T10:38:51;5.40;;;1.48;;
72132;SDS011;60008;50.826;6.896;2022-11-06T10:41:39;4.33;;;2.20;;
72132;SDS011;60008;50.826;6.896;2022-11-06T10:44:32;4.70;;;1.58;;
72132;SDS011;60008;50.826;6.896;2022-11-06T10:47:22;9.45;;;2.15;;
72132;SDS011;60008;50.826;6.896;2022-11-06T10:50:13;6.40;;;1.67;;
72132;SDS011;60008;50.826;6.896;2022-11-06T10:53:04;6.15;;;2.55;;
72132;SDS011;60008;50.826;6.896;2022-11-06T10:59:05;5.22;;;1.90;;
72132;SDS011;60008;50.826;6.896;2022-11-06T11:01:51;5.68;;;2.22;;
72132;SDS011;60008;50.826;6.896;2022-11-06T11:04:36;4.28;;;1.90;;
72132;SDS011;60008;50.826;6.896;2022-11-06T11:07:21;3.60;;;1.90;;
72132;SDS011;60008;50.826;6.896;2022-11-06T11:13:09;5.95;;;2.10;;
72132;SDS011;60008;50.826;6.896;2022-11-06T11:16:04;5.60;;;1.90;;
72132;SDS011;60008;50.826;6.896;2022-11-06T11:19:25;3.70;;;1.70;;
72132;SDS011;60008;50.826;6.896;2022-11-06T11:22:20;5.03;;;1.80;;
72132;SDS011;60008;50.826;6.896;2022-11-06T11:25:23;4.30;;;1.70;;
72132;SDS011;60008;50.826;6.896;2022-11-06T11:28:12;7.72;;;2.17;;
72132;SDS011;60008;50.826;6.896;2022-11-06T11:31:10;4.40;;;1.83;;
72132;SDS011;60008;50.826;6.896;2022-11-06T11:34:01;7.13;;;2.15;;
72132;SDS011;60008;50.826;6.896;2022-11-06T11:39:47;7.60;;;2.07;;
72132;SDS011;60008;50.826;6.896;2022-11-06T11:42:32;6.10;;;2.00;;
72132;SDS011;60008;50.826;6.896;2022-11-06T11:45:18;6.38;;;1.98;;
72132;SDS011;60008;50.826;6.896;2022-11-06T11:48:11;6.18;;;2.00;;
72132;SDS011;60008;50.826;6.896;2022-11-06T11:51:03;8.25;;;2.10;;
72132;SDS011;60008;50.826;6.896;2022-11-06T11:53:58;4.87;;;1.80;;
72132;SDS011;60008;50.826;6.896;2022-11-06T11:56:48;4.03;;;1.77;;
72132;SDS011;60008;50.826;6.896;2022-11-06T11:59:52;5.15;;;1.60;;
72132;SDS011;60008;50.826;6.896;2022-11-06T12:02:45;4.72;;;1.60;;
72132;SDS011;60008;50.826;6.896;2022-11-06T12:05:37;3.10;;;1.35;;
72132;SDS011;60008;50.826;6.896;2022-11-06T12:08:24;4.37;;;1.87;;
72132;SDS011;60008;50.826;6.896;2022-11-06T12:11:09;3.38;;;1.50;;
72132;SDS011;60008;50.826;6.896;2022-11-06T12:14:21;4.78;;;1.80;;
72132;SDS011;60008;50.826;6.896;2022-11-06T12:17:13;3.17;;;1.20;;
72132;SDS011;60008;50.826;6.896;2022-11-06T12:20:04;4.55;;;1.70;;
72132;SDS011;60008;50.826;6.896;2022-11-06T12:22:57;3.03;;;1.17;;
72132;SDS011;60008;50.826;6.896;2022-11-06T12:25:49;1.48;;;0.55;;
72132;SDS011;60008;50.826;6.896;2022-11-06T12:29:14;4.40;;;0.93;;
72132;SDS011;60008;50.826;6.896;2022-11-06T12:32:08;6.57;;;0.90;;
72132;SDS011;60008;50.826;6.896;2022-11-06T12:40:52;1.45;;;0.32;;
72132;SDS011;60008;50.826;6.896;2022-11-06T12:43:45;3.28;;;0.60;;
72132;SDS011;60008;50.826;6.896;2022-11-06T12:46:50;1.23;;;0.30;;
72132;SDS011;60008;50.826;6.896;2022-11-06T12:56:33;5.40;;;1.50;;
72132;SDS011;60008;50.826;6.896;2022-11-06T12:59:32;3.88;;;1.50;;
72132;SDS011;60008;50.826;6.896;2022-11-06T13:05:57;3.40;;;1.40;;
72132;SDS011;60008;50.826;6.896;2022-11-06T13:09:03;6.23;;;1.50;;
72132;SDS011;60008;50.826;6.896;2022-11-06T13:11:56;3.83;;;0.95;;
72132;SDS011;60008;50.826;6.896;2022-11-06T13:20:55;2.85;;;1.30;;
72132;SDS011;60008;50.826;6.896;2022-11-06T13:23:50;3.43;;;1.30;;
72132;SDS011;60008;50.826;6.896;2022-11-06T13:26:49;5.78;;;1.40;;
72132;SDS011;60008;50.826;6.896;2022-11-06T13:29:43;4.82;;;1.10;;
72132;SDS011;60008;50.826;6.896;2022-11-06T13:32:28;4.07;;;1.25;;
72132;SDS011;60008;50.826;6.896;2022-11-06T13:35:17;2.13;;;1.10;;
72132;SDS011;60008;50.826;6.896;2022-11-06T13:38:05;4.07;;;1.53;;
72132;SDS011;60008;50.826;6.896;2022-11-06T13:40:53;4.18;;;1.20;;
72132;SDS011;60008;50.826;6.896;2022-11-06T13:43:48;2.97;;;1.35;;
72132;SDS011;60008;50.826;6.896;2022-11-06T13:46:40;2.33;;;1.00;;
72132;SDS011;60008;50.826;6.896;2022-11-06T13:52:45;3.33;;;0.90;;
72132;SDS011;60008;50.826;6.896;2022-11-06T13:55:48;1.90;;;0.75;;
72132;SDS011;60008;50.826;6.896;2022-11-06T13:58:47;2.20;;;0.73;;
72132;SDS011;60008;50.826;6.896;2022-11-06T14:05:19;2.95;;;0.63;;
72132;SDS011;60008;50.826;6.896;2022-11-06T14:08:06;2.90;;;1.00;;
72132;SDS011;60008;50.826;6.896;2022-11-06T14:11:01;3.33;;;1.05;;
72132;SDS011;60008;50.826;6.896;2022-11-06T14:13:59;3.42;;;1.27;;
72132;SDS011;60008;50.826;6.896;2022-11-06T14:20:01;5.78;;;1.33;;
72132;SDS011;60008;50.826;6.896;2022-11-06T14:26:12;4.90;;;1.35;;
72132;SDS011;60008;50.826;6.896;2022-11-06T14:28:58;5.68;;;1.60;;
72132;SDS011;60008;50.826;6.896;2022-11-06T14:44:23;4.03;;;1.30;;
72132;SDS011;60008;50.826;6.896;2022-11-06T14:47:24;6.05;;;1.17;;
72132;SDS011;60008;50.826;6.896;2022-11-06T14:53:05;6.30;;;2.00;;
72132;SDS011;60008;50.826;6.896;2022-11-06T14:56:06;3.42;;;1.42;;
72132;SDS011;60008;50.826;6.896;2022-11-06T14:58:56;5.13;;;1.40;;
72132;SDS011;60008;50.826;6.896;2022-11-06T15:01:56;7.68;;;1.50;;
72132;SDS011;60008;50.826;6.896;2022-11-06T15:05:06;4.30;;;1.30;;
72132;SDS011;60008;50.826;6.896;2022-11-06T15:07:57;6.50;;;1.30;;
72132;SDS011;60008;50.826;6.896;2022-11-06T15:10:50;3.90;;;1.35;;
72132;SDS011;60008;50.826;6.896;2022-11-06T15:13:36;3.42;;;1.50;;
72132;SDS011;60008;50.826;6.896;2022-11-06T15:16:21;3.40;;;1.20;;
72132;SDS011;60008;50.826;6.896;2022-11-06T15:19:14;2.88;;;1.17;;
72132;SDS011;60008;50.826;6.896;2022-11-06T15:25:11;4.30;;;1.10;;
72132;SDS011;60008;50.826;6.896;2022-11-06T15:28:10;4.03;;;1.05;;
72132;SDS011;60008;50.826;6.896;2022-11-06T15:31:03;5.60;;;1.05;;
72132;SDS011;60008;50.826;6.896;2022-11-06T15:33:55;2.65;;;1.17;;
72132;SDS011;60008;50.826;6.896;2022-11-06T15:36:45;4.17;;;1.30;;
72132;SDS011;60008;50.826;6.896;2022-11-06T15:42:26;5.97;;;2.70;;
72132;SDS011;60008;50.826;6.896;2022-11-06T15:50:45;5.77;;;1.70;;
72132;SDS011;60008;50.826;6.896;2022-11-06T15:53:31;2.75;;;1.20;;
72132;SDS011;60008;50.826;6.896;2022-11-06T15:56:25;3.80;;;1.30;;
72132;SDS011;60008;50.826;6.896;2022-11-06T15:59:15;4.50;;;1.48;;
72132;SDS011;60008;50.826;6.896;2022-11-06T16:02:03;4.47;;;1.50;;
72132;SDS011;60008;50.826;6.896;2022-11-06T16:04:53;8.37;;;1.80;;
72132;SDS011;60008;50.826;6.896;2022-11-06T16:07:38;3.50;;;1.50;;
72132;SDS011;60008;50.826;6.896;2022-11-06T16:10:24;4.03;;;1.80;;
72132;SDS011;60008;50.826;6.896;2022-11-06T16:13:13;4.15;;;1.80;;
72132;SDS011;60008;50.826;6.896;2022-11-06T16:16:01;4.15;;;1.60;;
72132;SDS011;60008;50.826;6.896;2022-11-06T16:18:46;3.23;;;1.30;;
72132;SDS011;60008;50.826;6.896;2022-11-06T16:21:34;4.10;;;1.50;;
72132;SDS011;60008;50.826;6.896;2022-11-06T16:24:20;15.52;;;5.72;;
72132;SDS011;60008;50.826;6.896;2022-11-06T16:27:05;10.05;;;2.17;;
72132;SDS011;60008;50.826;6.896;2022-11-06T16:29:57;4.10;;;1.48;;
72132;SDS011;60008;50.826;6.896;2022-11-06T16:32:45;3.40;;;1.10;;
72132;SDS011;60008;50.826;6.896;2022-11-06T16:35:31;3.60;;;1.48;;
72132;SDS011;60008;50.826;6.896;2022-11-06T16:38:26;4.80;;;1.50;;
72132;SDS011;60008;50.826;6.896;2022-11-06T16:47:26;5.47;;;1.70;;
72132;SDS011;60008;50.826;6.896;2022-11-06T16:53:45;3.25;;;1.38;;
72132;SDS011;60008;50.826;6.896;2022-11-06T16:56:34;4.18;;;1.70;;
72132;SDS011;60008;50.826;6.896;2022-11-06T16:59:22;3.70;;;1.95;;
72132;SDS011;60008;50.826;6.896;2022-11-06T17:02:18;3.27;;;1.50;;
72132;SDS011;60008;50.826;6.896;2022-11-06T17:05:10;5.32;;;2.33;;
72132;SDS011;60008;50.826;6.896;2022-11-06T17:08:07;3.50;;;1.70;;
72132;SDS011;60008;50.826;6.896;2022-11-06T17:10:56;5.22;;;2.00;;
72132;SDS011;60008;50.826;6.896;2022-11-06T17:13:42;3.05;;;1.73;;
72132;SDS011;60008;50.826;6.896;2022-11-06T17:16:28;5.40;;;2.50;;
72132;SDS011;60008;50.826;6.896;2022-11-06T17:19:15;5.95;;;2.70;;
72132;SDS011;60008;50.826;6.896;2022-11-06T17:22:01;8.60;;;2.80;;
72132;SDS011;60008;50.826;6.896;2022-11-06T17:24:46;5.70;;;2.72;;
72132;SDS011;60008;50.826;6.896;2022-11-06T17:27:31;5.47;;;2.88;;
72132;SDS011;60008;50.826;6.896;2022-11-06T17:30:16;5.50;;;2.93;;
72132;SDS011;60008;50.826;6.896;2022-11-06T17:33:01;8.52;;;3.30;;
72132;SDS011;60008;50.826;6.896;2022-11-06T17:35:49;8.13;;;2.85;;
72132;SDS011;60008;50.826;6.896;2022-11-06T17:38:34;7.53;;;2.80;;
72132;SDS011;60008;50.826;6.896;2022-11-06T17:41:20;6.78;;;2.65;;
72132;SDS011;60008;50.826;6.896;2022-11-06T17:44:14;5.67;;;2.70;;
72132;SDS011;60008;50.826;6.896;2022-11-06T17:46:59;6.18;;;2.53;;
72132;SDS011;60008;50.826;6.896;2022-11-06T17:49:43;7.10;;;2.55;;
72132;SDS011;60008;50.826;6.896;2022-11-06T17:52:30;5.82;;;2.42;;
72132;SDS011;60008;50.826;6.896;2022-11-06T17:55:15;5.32;;;2.85;;
72132;SDS011;60008;50.826;6.896;2022-11-06T17:58:00;5.93;;;2.90;;
72132;SDS011;60008;50.826;6.896;2022-11-06T18:00:45;7.80;;;2.58;;
72132;SDS011;60008;50.826;6.896;2022-11-06T18:03:30;5.50;;;2.20;;
72132;SDS011;60008;50.826;6.896;2022-11-06T18:06:20;7.80;;;2.33;;
72132;SDS011;60008;50.826;6.896;2022-11-06T18:09:06;6.30;;;2.75;;
72132;SDS011;60008;50.826;6.896;2022-11-06T18:11:52;5.43;;;2.77;;
72132;SDS011;60008;50.826;6.896;2022-11-06T18:14:37;7.30;;;2.80;;
72132;SDS011;60008;50.826;6.896;2022-11-06T18:17:23;6.40;;;2.80;;
72132;SDS011;60008;50.826;6.896;2022-11-06T18:20:08;7.03;;;2.70;;
72132;SDS011;60008;50.826;6.896;2022-11-06T18:22:54;5.95;;;2.88;;
72132;SDS011;60008;50.826;6.896;2022-11-06T18:25:39;7.90;;;3.90;;
72132;SDS011;60008;50.826;6.896;2022-11-06T18:28:24;7.47;;;3.80;;
72132;SDS011;60008;50.826;6.896;2022-11-06T18:31:10;4.28;;;2.30;;
72132;SDS011;60008;50.826;6.896;2022-11-06T18:33:55;6.13;;;2.25;;
72132;SDS011;60008;50.826;6.896;2022-11-06T18:36:41;2.15;;;1.00;;
72132;SDS011;60008;50.826;6.896;2022-11-06T18:39:25;4.17;;;1.67;;
72132;SDS011;60008;50.826;6.896;2022-11-06T18:42:10;4.05;;;1.30;;
72132;SDS011;60008;50.826;6.896;2022-11-06T18:44:56;4.82;;;1.38;;
72132;SDS011;60008;50.826;6.896;2022-11-06T18:47:40;4.13;;;1.20;;
72132;SDS011;60008;50.826;6.896;2022-11-06T18:50:26;1.50;;;0.60;;
72132;SDS011;60008;50.826;6.896;2022-11-06T18:53:10;2.97;;;1.20;;
72132;SDS011;60008;50.826;6.896;2022-11-06T18:55:56;2.35;;;0.93;;